sensor_id;sensor_type;location;lat;lon;timestamp;pressure;altitude;pressure_sealevel;temperature;humidity
13058;BME280;6595;49.578;11.012;2023-07-16T00:00:23;986.471;;;20.25;93.3
13058;BME280;6595;49.578;11.012;2023-07-16T00:02:24;986.593;;;20.20;93.3
13058;BME280;6595;49.578;11.012;2023-07-16T00:04:24;986.669;;;20.11;93.5
13058;BME280;6595;49.578;11.012;2023-07-16T00:06:23;986.801;;;20.17;93.8
13058;BME280;6595;49.578;11.012;2023-07-16T00:08:24;986.855;;;20.23;93.7
13058;BME280;6595;49.578;11.012;2023-07-16T00:10:23;987.001;;;20.25;93.3
13058;BME280;6595;49.578;11.012;2023-07-16T00:12:24;987.075;;;20.27;93.6
13058;BME280;6595;49.578;11.012;2023-07-16T00:14:23;987.033;;;20.27;93.0
13058;BME280;6595;49.578;11.012;2023-07-16T00:16:23;986.989;;;20.21;93.1
13058;BME280;6595;49.578;11.012;2023-07-16T00:18:24;986.910;;;20.18;93.1
13058;BME280;6595;49.578;11.012;2023-07-16T00:20:23;986.843;;;20.13;93.0
13058;BME280;6595;49.578;11.012;2023-07-16T00:22:24;986.779;;;20.10;93.4
13058;BME280;6595;49.578;11.012;2023-07-16T00:24:24;986.521;;;20.07;93.7
13058;BME280;6595;49.578;11.012;2023-07-16T00:26:23;986.460;;;20.08;94.0
13058;BME280;6595;49.578;11.012;2023-07-16T00:28:24;986.392;;;20.11;94.1
13058;BME280;6595;49.578;11.012;2023-07-16T00:30:24;986.477;;;20.17;94.1
13058;BME280;6595;49.578;11.012;2023-07-16T00:32:24;986.401;;;20.11;93.7
13058;BME280;6595;49.578;11.012;2023-07-16T00:34:24;986.508;;;20.11;94.0
13058;BME280;6595;49.578;11.012;2023-07-16T00:36:23;986.794;;;20.08;93.8
13058;BME280;6595;49.578;11.012;2023-07-16T00:38:24;986.842;;;20.08;93.9
13058;BME280;6595;49.578;11.012;2023-07-16T00:40:23;986.905;;;20.07;94.0
13058;BME280;6595;49.578;11.012;2023-07-16T00:42:24;986.905;;;20.07;94.0
13058;BME280;6595;49.578;11.012;2023-07-16T00:44:23;986.982;;;20.03;93.8
13058;BME280;6595;49.578;11.012;2023-07-16T00:46:24;987.153;;;19.97;93.7
13058;BME280;6595;49.578;11.012;2023-07-16T00:48:24;987.229;;;20.00;93.8
13058;BME280;6595;49.578;11.012;2023-07-16T00:50:23;987.382;;;20.00;93.5
13058;BME280;6595;49.578;11.012;2023-07-16T00:52:23;987.441;;;20.03;93.5
13058;BME280;6595;49.578;11.012;2023-07-16T00:54:24;987.477;;;20.04;93.1
13058;BME280;6595;49.578;11.012;2023-07-16T00:56:24;987.407;;;20.07;93.2
13058;BME280;6595;49.578;11.012;2023-07-16T00:58:23;987.626;;;20.10;93.6
13058;BME280;6595;49.578;11.012;2023-07-16T01:00:24;987.663;;;20.10;93.6
13058;BME280;6595;49.578;11.012;2023-07-16T01:02:24;987.836;;;20.03;93.4
13058;BME280;6595;49.578;11.012;2023-07-16T01:04:23;987.900;;;20.06;93.7
13058;BME280;6595;49.578;11.012;2023-07-16T01:06:28;987.949;;;20.04;93.7
13058;BME280;6595;49.578;11.012;2023-07-16T01:08:31;987.822;;;20.04;93.7
13058;BME280;6595;49.578;11.012;2023-07-16T01:10:25;987.934;;;20.04;93.6
13058;BME280;6595;49.578;11.012;2023-07-16T01:12:25;987.887;;;19.96;93.6
13058;BME280;6595;49.578;11.012;2023-07-16T01:14:24;987.865;;;19.96;93.7
13058;BME280;6595;49.578;11.012;2023-07-16T01:16:24;987.856;;;19.97;92.1
13058;BME280;6595;49.578;11.012;2023-07-16T01:18:24;987.960;;;19.93;92.2
13058;BME280;6595;49.578;11.012;2023-07-16T01:20:24;988.027;;;19.96;93.4
13058;BME280;6595;49.578;11.012;2023-07-16T01:22:48;988.121;;;19.97;93.2
13058;BME280;6595;49.578;11.012;2023-07-16T01:24:39;988.222;;;19.97;91.8
13058;BME280;6595;49.578;11.012;2023-07-16T01:26:39;988.245;;;19.88;92.1
13058;BME280;6595;49.578;11.012;2023-07-16T01:28:35;988.165;;;19.76;91.2
13058;BME280;6595;49.578;11.012;2023-07-16T01:30:26;988.101;;;19.64;91.9
13058;BME280;6595;49.578;11.012;2023-07-16T01:32:24;988.197;;;19.63;92.4
13058;BME280;6595;49.578;11.012;2023-07-16T01:34:25;988.105;;;19.50;91.6
13058;BME280;6595;49.578;11.012;2023-07-16T01:36:24;987.950;;;19.39;92.8
13058;BME280;6595;49.578;11.012;2023-07-16T01:38:24;987.973;;;19.34;93.2
13058;BME280;6595;49.578;11.012;2023-07-16T01:40:23;987.781;;;19.29;93.1
13058;BME280;6595;49.578;11.012;2023-07-16T01:42:24;987.914;;;19.20;92.9
13058;BME280;6595;49.578;11.012;2023-07-16T01:44:23;987.883;;;19.13;93.5
13058;BME280;6595;49.578;11.012;2023-07-16T01:46:23;987.847;;;19.15;93.1
13058;BME280;6595;49.578;11.012;2023-07-16T01:48:29;987.653;;;19.12;93.6
13058;BME280;6595;49.578;11.012;2023-07-16T01:50:23;987.736;;;19.06;93.8
13058;BME280;6595;49.578;11.012;2023-07-16T01:52:24;987.705;;;19.06;93.9
13058;BME280;6595;49.578;11.012;2023-07-16T01:54:23;987.635;;;19.08;94.1
13058;BME280;6595;49.578;11.012;2023-07-16T01:56:23;987.532;;;19.15;94.3
13058;BME280;6595;49.578;11.012;2023-07-16T01:58:24;987.675;;;19.22;94.4
13058;BME280;6595;49.578;11.012;2023-07-16T02:00:23;987.687;;;19.19;93.9
13058;BME280;6595;49.578;11.012;2023-07-16T02:02:24;987.734;;;19.22;93.9
13058;BME280;6595;49.578;11.012;2023-07-16T02:04:24;987.603;;;19.29;94.3
13058;BME280;6595;49.578;11.012;2023-07-16T02:06:23;987.685;;;19.34;94.4
13058;BME280;6595;49.578;11.012;2023-07-16T02:08:23;987.704;;;19.45;94.1
13058;BME280;6595;49.578;11.012;2023-07-16T02:10:24;987.593;;;19.46;94.0
13058;BME280;6595;49.578;11.012;2023-07-16T02:12:23;987.455;;;19.43;94.2
13058;BME280;6595;49.578;11.012;2023-07-16T02:14:23;987.431;;;19.49;94.1
13058;BME280;6595;49.578;11.012;2023-07-16T02:16:24;987.546;;;19.53;93.6
13058;BME280;6595;49.578;11.012;2023-07-16T02:18:23;987.656;;;19.54;93.4
13058;BME280;6595;49.578;11.012;2023-07-16T02:20:24;987.629;;;19.53;93.1
13058;BME280;6595;49.578;11.012;2023-07-16T02:22:24;987.555;;;19.49;93.8
13058;BME280;6595;49.578;11.012;2023-07-16T02:24:24;987.463;;;19.49;93.8
13058;BME280;6595;49.578;11.012;2023-07-16T02:26:24;987.440;;;19.49;93.7
13058;BME280;6595;49.578;11.012;2023-07-16T02:28:23;987.479;;;19.50;93.9
13058;BME280;6595;49.578;11.012;2023-07-16T02:30:24;987.597;;;19.48;93.2
13058;BME280;6595;49.578;11.012;2023-07-16T02:32:23;987.530;;;19.50;93.7
13058;BME280;6595;49.578;11.012;2023-07-16T02:34:23;987.576;;;19.49;93.7
13058;BME280;6595;49.578;11.012;2023-07-16T02:36:24;987.540;;;19.54;93.4
13058;BME280;6595;49.578;11.012;2023-07-16T02:38:23;987.603;;;19.53;93.5
13058;BME280;6595;49.578;11.012;2023-07-16T02:40:23;987.596;;;19.59;93.1
13058;BME280;6595;49.578;11.012;2023-07-16T02:42:24;987.727;;;19.57;92.9
13058;BME280;6595;49.578;11.012;2023-07-16T02:44:23;987.880;;;19.48;93.1
13058;BME280;6595;49.578;11.012;2023-07-16T02:46:24;987.910;;;19.53;93.4
13058;BME280;6595;49.578;11.012;2023-07-16T02:48:24;987.840;;;19.48;93.3
13058;BME280;6595;49.578;11.012;2023-07-16T02:50:23;988.055;;;19.43;93.1
13058;BME280;6595;49.578;11.012;2023-07-16T02:52:23;988.104;;;19.42;92.6
13058;BME280;6595;49.578;11.012;2023-07-16T02:54:24;988.072;;;19.39;93.2
13058;BME280;6595;49.578;11.012;2023-07-16T02:56:23;988.116;;;19.42;93.4
13058;BME280;6595;49.578;11.012;2023-07-16T02:58:24;988.234;;;19.48;93.6
13058;BME280;6595;49.578;11.012;2023-07-16T03:00:24;988.312;;;19.46;93.4
13058;BME280;6595;49.578;11.012;2023-07-16T03:02:23;988.248;;;19.49;93.4
13058;BME280;6595;49.578;11.012;2023-07-16T03:04:23;988.251;;;19.52;93.0
13058;BME280;6595;49.578;11.012;2023-07-16T03:06:24;988.251;;;19.52;93.0
13058;BME280;6595;49.578;11.012;2023-07-16T03:08:23;988.060;;;19.45;92.9
13058;BME280;6595;49.578;11.012;2023-07-16T03:10:24;988.095;;;19.45;92.5
13058;BME280;6595;49.578;11.012;2023-07-16T03:12:24;987.983;;;19.48;92.6
13058;BME280;6595;49.578;11.012;2023-07-16T03:14:23;988.179;;;19.50;92.9
13058;BME280;6595;49.578;11.012;2023-07-16T03:16:23;988.216;;;19.53;92.6
13058;BME280;6595;49.578;11.012;2023-07-16T03:18:28;988.334;;;19.46;92.7
13058;BME280;6595;49.578;11.012;2023-07-16T03:20:23;988.340;;;19.48;92.6
13058;BME280;6595;49.578;11.012;2023-07-16T03:22:23;988.392;;;19.48;92.5
13058;BME280;6595;49.578;11.012;2023-07-16T03:24:23;988.392;;;19.48;92.5
13058;BME280;6595;49.578;11.012;2023-07-16T03:26:24;988.547;;;19.34;92.4
13058;BME280;6595;49.578;11.012;2023-07-16T03:28:24;988.715;;;19.40;92.8
13058;BME280;6595;49.578;11.012;2023-07-16T03:30:23;988.762;;;19.29;92.3
13058;BME280;6595;49.578;11.012;2023-07-16T03:32:23;988.770;;;19.27;92.4
13058;BME280;6595;49.578;11.012;2023-07-16T03:34:23;988.635;;;19.25;92.1
13058;BME280;6595;49.578;11.012;2023-07-16T03:36:24;988.630;;;19.25;92.1
13058;BME280;6595;49.578;11.012;2023-07-16T03:38:23;988.515;;;19.19;92.6
13058;BME280;6595;49.578;11.012;2023-07-16T03:40:25;988.545;;;19.19;92.5
13058;BME280;6595;49.578;11.012;2023-07-16T03:42:23;988.503;;;19.19;92.4
13058;BME280;6595;49.578;11.012;2023-07-16T03:44:23;988.459;;;19.19;92.5
13058;BME280;6595;49.578;11.012;2023-07-16T03:46:24;988.456;;;19.23;92.1
13058;BME280;6595;49.578;11.012;2023-07-16T03:48:23;988.430;;;19.20;91.5
13058;BME280;6595;49.578;11.012;2023-07-16T03:50:23;988.665;;;19.16;90.0
13058;BME280;6595;49.578;11.012;2023-07-16T03:52:24;988.801;;;19.15;90.3
13058;BME280;6595;49.578;11.012;2023-07-16T03:54:23;988.565;;;19.18;90.0
13058;BME280;6595;49.578;11.012;2023-07-16T03:56:24;988.488;;;19.08;88.3
13058;BME280;6595;49.578;11.012;2023-07-16T03:58:24;988.400;;;19.12;89.2
13058;BME280;6595;49.578;11.012;2023-07-16T04:00:23;988.439;;;19.13;89.2
13058;BME280;6595;49.578;11.012;2023-07-16T04:02:24;988.580;;;19.09;88.8
13058;BME280;6595;49.578;11.012;2023-07-16T04:04:24;988.487;;;19.06;87.6
13058;BME280;6595;49.578;11.012;2023-07-16T04:06:23;988.602;;;19.03;86.0
13058;BME280;6595;49.578;11.012;2023-07-16T04:08:24;988.680;;;19.02;86.0
13058;BME280;6595;49.578;11.012;2023-07-16T04:10:24;988.711;;;18.99;86.1
13058;BME280;6595;49.578;11.012;2023-07-16T04:12:23;988.750;;;18.96;85.7
13058;BME280;6595;49.578;11.012;2023-07-16T04:14:24;988.787;;;18.95;86.0
13058;BME280;6595;49.578;11.012;2023-07-16T04:16:24;988.863;;;18.91;86.5
13058;BME280;6595;49.578;11.012;2023-07-16T04:18:24;988.864;;;18.92;86.1
13058;BME280;6595;49.578;11.012;2023-07-16T04:20:24;989.130;;;18.84;86.6
13058;BME280;6595;49.578;11.012;2023-07-16T04:22:24;989.239;;;18.86;86.5
13058;BME280;6595;49.578;11.012;2023-07-16T04:24:23;989.241;;;18.88;86.0
13058;BME280;6595;49.578;11.012;2023-07-16T04:26:23;989.243;;;18.86;86.1
13058;BME280;6595;49.578;11.012;2023-07-16T04:28:24;989.388;;;18.86;85.5
13058;BME280;6595;49.578;11.012;2023-07-16T04:30:23;989.499;;;18.82;85.1
13058;BME280;6595;49.578;11.012;2023-07-16T04:32:24;989.494;;;18.80;85.1
13058;BME280;6595;49.578;11.012;2023-07-16T04:34:23;989.532;;;18.82;84.8
13058;BME280;6595;49.578;11.012;2023-07-16T04:36:24;989.608;;;18.80;85.3
13058;BME280;6595;49.578;11.012;2023-07-16T04:38:23;989.651;;;18.85;84.8
13058;BME280;6595;49.578;11.012;2023-07-16T04:40:24;989.677;;;18.80;83.9
13058;BME280;6595;49.578;11.012;2023-07-16T04:42:23;989.731;;;18.78;83.8
13058;BME280;6595;49.578;11.012;2023-07-16T04:44:23;989.813;;;18.78;83.4
13058;BME280;6595;49.578;11.012;2023-07-16T04:46:24;989.862;;;18.75;83.0
13058;BME280;6595;49.578;11.012;2023-07-16T04:48:25;989.822;;;18.84;83.4
13058;BME280;6595;49.578;11.012;2023-07-16T04:50:23;989.738;;;18.84;82.9
13058;BME280;6595;49.578;11.012;2023-07-16T04:52:24;989.796;;;18.85;82.8
13058;BME280;6595;49.578;11.012;2023-07-16T04:54:23;989.791;;;18.85;83.2
13058;BME280;6595;49.578;11.012;2023-07-16T04:56:23;989.718;;;18.75;82.7
13058;BME280;6595;49.578;11.012;2023-07-16T04:58:24;989.670;;;18.78;83.6
13058;BME280;6595;49.578;11.012;2023-07-16T05:00:23;989.668;;;18.84;84.0
13058;BME280;6595;49.578;11.012;2023-07-16T05:02:23;989.664;;;18.96;84.5
13058;BME280;6595;49.578;11.012;2023-07-16T05:04:24;989.747;;;18.99;84.3
13058;BME280;6595;49.578;11.012;2023-07-16T05:06:23;989.813;;;18.92;83.2
13058;BME280;6595;49.578;11.012;2023-07-16T05:08:23;989.939;;;18.89;82.5
13058;BME280;6595;49.578;11.012;2023-07-16T05:10:24;989.932;;;18.94;82.4
13058;BME280;6595;49.578;11.012;2023-07-16T05:12:23;989.845;;;19.03;81.8
13058;BME280;6595;49.578;11.012;2023-07-16T05:14:26;989.935;;;19.02;81.7
13058;BME280;6595;49.578;11.012;2023-07-16T05:16:24;990.108;;;18.89;80.4
13058;BME280;6595;49.578;11.012;2023-07-16T05:18:23;990.124;;;19.03;81.6
13058;BME280;6595;49.578;11.012;2023-07-16T05:20:23;990.142;;;19.08;81.2
13058;BME280;6595;49.578;11.012;2023-07-16T05:22:24;990.120;;;19.01;81.6
13058;BME280;6595;49.578;11.012;2023-07-16T05:24:23;990.058;;;19.10;80.5
13058;BME280;6595;49.578;11.012;2023-07-16T05:26:23;990.109;;;18.99;79.9
13058;BME280;6595;49.578;11.012;2023-07-16T05:28:24;990.375;;;19.01;80.0
13058;BME280;6595;49.578;11.012;2023-07-16T05:30:23;990.231;;;18.86;80.3
13058;BME280;6595;49.578;11.012;2023-07-16T05:32:23;990.309;;;18.85;80.2
13058;BME280;6595;49.578;11.012;2023-07-16T05:34:24;990.329;;;18.91;80.7
13058;BME280;6595;49.578;11.012;2023-07-16T05:36:23;990.328;;;19.02;79.4
13058;BME280;6595;49.578;11.012;2023-07-16T05:38:23;990.364;;;18.96;79.6
13058;BME280;6595;49.578;11.012;2023-07-16T05:40:24;990.351;;;18.92;79.8
13058;BME280;6595;49.578;11.012;2023-07-16T05:42:23;990.334;;;18.88;80.4
13058;BME280;6595;49.578;11.012;2023-07-16T05:44:23;990.422;;;18.80;79.2
13058;BME280;6595;49.578;11.012;2023-07-16T05:46:24;990.465;;;18.66;80.2
13058;BME280;6595;49.578;11.012;2023-07-16T05:48:23;990.460;;;18.68;80.6
13058;BME280;6595;49.578;11.012;2023-07-16T05:50:24;990.458;;;18.82;80.7
13058;BME280;6595;49.578;11.012;2023-07-16T05:52:23;990.582;;;18.84;79.8
13058;BME280;6595;49.578;11.012;2023-07-16T05:54:23;990.460;;;18.94;79.2
13058;BME280;6595;49.578;11.012;2023-07-16T05:56:24;990.386;;;18.82;79.4
13058;BME280;6595;49.578;11.012;2023-07-16T05:58:24;990.350;;;18.78;79.9
13058;BME280;6595;49.578;11.012;2023-07-16T06:00:23;990.376;;;18.72;79.3
13058;BME280;6595;49.578;11.012;2023-07-16T06:02:24;990.327;;;18.98;78.8
13058;BME280;6595;49.578;11.012;2023-07-16T06:04:24;990.345;;;19.10;78.0
13058;BME280;6595;49.578;11.012;2023-07-16T06:06:23;990.349;;;19.02;78.6
13058;BME280;6595;49.578;11.012;2023-07-16T06:08:23;990.261;;;19.02;78.7
13058;BME280;6595;49.578;11.012;2023-07-16T06:10:23;990.312;;;19.03;77.8
13058;BME280;6595;49.578;11.012;2023-07-16T06:12:24;990.423;;;18.92;78.6
13058;BME280;6595;49.578;11.012;2023-07-16T06:14:23;990.577;;;18.88;78.6
13058;BME280;6595;49.578;11.012;2023-07-16T06:16:24;990.627;;;18.82;78.7
13058;BME280;6595;49.578;11.012;2023-07-16T06:18:24;990.632;;;19.05;78.5
13058;BME280;6595;49.578;11.012;2023-07-16T06:20:23;990.711;;;19.06;78.8
13058;BME280;6595;49.578;11.012;2023-07-16T06:22:24;990.626;;;19.06;78.8
13058;BME280;6595;49.578;11.012;2023-07-16T06:24:24;990.422;;;19.36;77.4
13058;BME280;6595;49.578;11.012;2023-07-16T06:26:23;990.468;;;19.48;76.5
13058;BME280;6595;49.578;11.012;2023-07-16T06:28:24;990.704;;;19.29;77.1
13058;BME280;6595;49.578;11.012;2023-07-16T06:30:24;990.682;;;19.20;77.5
13058;BME280;6595;49.578;11.012;2023-07-16T06:32:23;990.669;;;19.36;77.4
13058;BME280;6595;49.578;11.012;2023-07-16T06:34:24;990.731;;;19.45;76.8
13058;BME280;6595;49.578;11.012;2023-07-16T06:36:24;990.754;;;19.39;77.0
13058;BME280;6595;49.578;11.012;2023-07-16T06:38:23;990.836;;;19.37;76.7
13058;BME280;6595;49.578;11.012;2023-07-16T06:40:24;990.948;;;19.20;77.1
13058;BME280;6595;49.578;11.012;2023-07-16T06:42:24;990.923;;;19.29;77.4
13058;BME280;6595;49.578;11.012;2023-07-16T06:44:23;990.936;;;19.20;76.5
13058;BME280;6595;49.578;11.012;2023-07-16T06:46:24;990.893;;;19.15;77.1
13058;BME280;6595;49.578;11.012;2023-07-16T06:48:23;990.847;;;19.10;77.4
13058;BME280;6595;49.578;11.012;2023-07-16T06:50:23;990.759;;;19.08;77.2
13058;BME280;6595;49.578;11.012;2023-07-16T06:52:24;990.770;;;19.15;76.5
13058;BME280;6595;49.578;11.012;2023-07-16T06:54:23;990.770;;;19.15;76.5
13058;BME280;6595;49.578;11.012;2023-07-16T06:56:24;990.682;;;19.26;76.3
13058;BME280;6595;49.578;11.012;2023-07-16T06:58:31;990.726;;;19.20;75.9
13058;BME280;6595;49.578;11.012;2023-07-16T07:00:23;990.724;;;19.29;76.2
13058;BME280;6595;49.578;11.012;2023-07-16T07:02:23;990.762;;;19.33;74.9
13058;BME280;6595;49.578;11.012;2023-07-16T07:04:24;990.863;;;19.34;75.5
13058;BME280;6595;49.578;11.012;2023-07-16T07:06:23;990.897;;;19.53;74.8
13058;BME280;6595;49.578;11.012;2023-07-16T07:08:24;990.882;;;19.46;74.5
13058;BME280;6595;49.578;11.012;2023-07-16T07:10:23;990.933;;;19.54;74.4
13058;BME280;6595;49.578;11.012;2023-07-16T07:12:23;990.933;;;19.54;74.6
13058;BME280;6595;49.578;11.012;2023-07-16T07:14:24;990.958;;;19.62;74.4
13058;BME280;6595;49.578;11.012;2023-07-16T07:16:23;990.971;;;19.59;73.5
13058;BME280;6595;49.578;11.012;2023-07-16T07:18:24;990.895;;;19.25;75.1
13058;BME280;6595;49.578;11.012;2023-07-16T07:20:24;990.867;;;19.48;75.0
13058;BME280;6595;49.578;11.012;2023-07-16T07:22:23;990.878;;;19.48;74.5
13058;BME280;6595;49.578;11.012;2023-07-16T07:24:23;990.912;;;19.32;74.6
13058;BME280;6595;49.578;11.012;2023-07-16T07:26:24;990.972;;;19.49;74.2
13058;BME280;6595;49.578;11.012;2023-07-16T07:28:23;991.018;;;19.53;74.0
13058;BME280;6595;49.578;11.012;2023-07-16T07:30:24;990.933;;;19.63;74.2
13058;BME280;6595;49.578;11.012;2023-07-16T07:32:23;990.888;;;19.32;74.2
13058;BME280;6595;49.578;11.012;2023-07-16T07:34:23;990.977;;;19.49;74.2
13058;BME280;6595;49.578;11.012;2023-07-16T07:36:24;991.021;;;19.48;74.5
13058;BME280;6595;49.578;11.012;2023-07-16T07:38:23;990.933;;;19.39;74.1
13058;BME280;6595;49.578;11.012;2023-07-16T07:40:23;990.983;;;19.34;74.4
13058;BME280;6595;49.578;11.012;2023-07-16T07:42:24;990.946;;;19.66;74.0
13058;BME280;6595;49.578;11.012;2023-07-16T07:44:23;990.985;;;19.80;73.1
13058;BME280;6595;49.578;11.012;2023-07-16T07:46:23;991.000;;;19.76;72.6
13058;BME280;6595;49.578;11.012;2023-07-16T07:48:24;991.055;;;19.81;73.4
13058;BME280;6595;49.578;11.012;2023-07-16T07:50:23;990.946;;;19.73;71.9
13058;BME280;6595;49.578;11.012;2023-07-16T07:52:24;990.936;;;19.84;71.5
13058;BME280;6595;49.578;11.012;2023-07-16T07:54:23;990.938;;;19.90;71.4
13058;BME280;6595;49.578;11.012;2023-07-16T07:56:24;991.011;;;19.96;71.5
13058;BME280;6595;49.578;11.012;2023-07-16T07:58:24;990.949;;;20.16;70.6
13058;BME280;6595;49.578;11.012;2023-07-16T08:00:23;990.829;;;20.31;70.2
13058;BME280;6595;49.578;11.012;2023-07-16T08:02:24;990.792;;;20.41;69.7
13058;BME280;6595;49.578;11.012;2023-07-16T08:04:24;990.783;;;20.10;69.6
13058;BME280;6595;49.578;11.012;2023-07-16T08:06:24;990.837;;;19.98;69.2
13058;BME280;6595;49.578;11.012;2023-07-16T08:08:23;990.882;;;20.21;69.0
13058;BME280;6595;49.578;11.012;2023-07-16T08:10:24;990.976;;;20.07;68.6
13058;BME280;6595;49.578;11.012;2023-07-16T08:12:23;990.991;;;20.08;69.2
13058;BME280;6595;49.578;11.012;2023-07-16T08:14:24;991.093;;;20.29;68.6
13058;BME280;6595;49.578;11.012;2023-07-16T08:16:23;991.061;;;20.18;68.9
13058;BME280;6595;49.578;11.012;2023-07-16T08:18:23;991.102;;;20.10;70.0
13058;BME280;6595;49.578;11.012;2023-07-16T08:20:24;991.100;;;20.01;70.1
13058;BME280;6595;49.578;11.012;2023-07-16T08:22:24;991.140;;;20.03;70.1
13058;BME280;6595;49.578;11.012;2023-07-16T08:24:24;991.140;;;20.03;70.1
13058;BME280;6595;49.578;11.012;2023-07-16T08:26:24;991.259;;;20.16;69.8
13058;BME280;6595;49.578;11.012;2023-07-16T08:28:24;991.271;;;20.39;69.0
13058;BME280;6595;49.578;11.012;2023-07-16T08:30:23;991.349;;;20.48;68.7
13058;BME280;6595;49.578;11.012;2023-07-16T08:32:24;991.300;;;20.48;69.7
13058;BME280;6595;49.578;11.012;2023-07-16T08:34:24;991.250;;;20.38;68.2
13058;BME280;6595;49.578;11.012;2023-07-16T08:36:23;991.173;;;20.62;66.0
13058;BME280;6595;49.578;11.012;2023-07-16T08:38:24;991.268;;;20.56;68.0
13058;BME280;6595;49.578;11.012;2023-07-16T08:40:23;991.258;;;20.55;66.4
13058;BME280;6595;49.578;11.012;2023-07-16T08:42:23;991.178;;;20.56;66.4
13058;BME280;6595;49.578;11.012;2023-07-16T08:44:24;991.291;;;20.48;66.8
13058;BME280;6595;49.578;11.012;2023-07-16T08:46:23;991.290;;;20.32;66.9
13058;BME280;6595;49.578;11.012;2023-07-16T08:48:24;991.169;;;20.58;65.8
13058;BME280;6595;49.578;11.012;2023-07-16T08:50:24;991.216;;;20.71;65.5
13058;BME280;6595;49.578;11.012;2023-07-16T08:52:26;991.348;;;20.78;66.4
13058;BME280;6595;49.578;11.012;2023-07-16T08:54:23;991.318;;;20.95;65.8
13058;BME280;6595;49.578;11.012;2023-07-16T08:56:24;991.391;;;20.93;66.2
13058;BME280;6595;49.578;11.012;2023-07-16T08:58:24;991.445;;;20.82;67.8
13058;BME280;6595;49.578;11.012;2023-07-16T09:00:23;991.448;;;20.89;67.6
13058;BME280;6595;49.578;11.012;2023-07-16T09:02:24;991.376;;;20.92;65.9
13058;BME280;6595;49.578;11.012;2023-07-16T09:04:23;991.419;;;20.79;65.7
13058;BME280;6595;49.578;11.012;2023-07-16T09:06:25;991.456;;;20.74;66.3
13058;BME280;6595;49.578;11.012;2023-07-16T09:08:24;991.524;;;20.59;66.2
13058;BME280;6595;49.578;11.012;2023-07-16T09:10:23;991.519;;;20.49;66.5
13058;BME280;6595;49.578;11.012;2023-07-16T09:12:24;991.389;;;20.44;66.9
13058;BME280;6595;49.578;11.012;2023-07-16T09:14:23;991.371;;;20.86;65.1
13058;BME280;6595;49.578;11.012;2023-07-16T09:16:23;991.318;;;20.96;64.8
13058;BME280;6595;49.578;11.012;2023-07-16T09:18:25;991.400;;;21.13;65.0
13058;BME280;6595;49.578;11.012;2023-07-16T09:20:24;991.400;;;21.13;65.0
13058;BME280;6595;49.578;11.012;2023-07-16T09:22:23;991.370;;;21.47;64.4
13058;BME280;6595;49.578;11.012;2023-07-16T09:24:24;991.400;;;21.60;63.5
13058;BME280;6595;49.578;11.012;2023-07-16T09:26:23;991.400;;;21.60;63.5
13058;BME280;6595;49.578;11.012;2023-07-16T09:28:23;991.489;;;21.80;61.4
13058;BME280;6595;49.578;11.012;2023-07-16T09:30:24;991.464;;;21.53;62.5
13058;BME280;6595;49.578;11.012;2023-07-16T09:32:32;991.444;;;21.57;61.9
13058;BME280;6595;49.578;11.012;2023-07-16T09:34:26;991.455;;;21.49;61.7
13058;BME280;6595;49.578;11.012;2023-07-16T09:36:24;991.489;;;21.53;61.9
13058;BME280;6595;49.578;11.012;2023-07-16T09:38:24;991.504;;;21.56;60.8
13058;BME280;6595;49.578;11.012;2023-07-16T09:40:23;991.530;;;21.63;60.7
13058;BME280;6595;49.578;11.012;2023-07-16T09:42:24;991.454;;;21.58;60.7
13058;BME280;6595;49.578;11.012;2023-07-16T09:44:23;991.437;;;21.70;61.1
13058;BME280;6595;49.578;11.012;2023-07-16T09:46:23;991.392;;;21.90;61.0
13058;BME280;6595;49.578;11.012;2023-07-16T09:48:24;991.386;;;22.20;61.2
13058;BME280;6595;49.578;11.012;2023-07-16T09:50:24;991.395;;;22.24;58.7
13058;BME280;6595;49.578;11.012;2023-07-16T09:52:25;991.399;;;22.41;59.1
13058;BME280;6595;49.578;11.012;2023-07-16T09:54:25;991.402;;;22.58;59.2
13058;BME280;6595;49.578;11.012;2023-07-16T09:56:26;991.413;;;22.61;56.9
13058;BME280;6595;49.578;11.012;2023-07-16T09:58:24;991.333;;;22.30;55.5
13058;BME280;6595;49.578;11.012;2023-07-16T10:00:25;991.214;;;22.31;56.8
13058;BME280;6595;49.578;11.012;2023-07-16T10:02:24;991.273;;;22.20;57.5
13058;BME280;6595;49.578;11.012;2023-07-16T10:04:24;991.241;;;22.25;57.6
13058;BME280;6595;49.578;11.012;2023-07-16T10:06:23;991.223;;;22.47;59.3
13058;BME280;6595;49.578;11.012;2023-07-16T10:08:24;991.268;;;22.62;57.0
13058;BME280;6595;49.578;11.012;2023-07-16T10:10:26;991.326;;;22.86;57.8
13058;BME280;6595;49.578;11.012;2023-07-16T10:12:25;991.196;;;22.78;54.8
13058;BME280;6595;49.578;11.012;2023-07-16T10:14:24;991.295;;;22.92;55.4
13058;BME280;6595;49.578;11.012;2023-07-16T10:16:24;991.259;;;23.05;53.4
13058;BME280;6595;49.578;11.012;2023-07-16T10:18:25;991.267;;;23.12;53.9
13058;BME280;6595;49.578;11.012;2023-07-16T10:20:32;991.275;;;23.23;54.5
13058;BME280;6595;49.578;11.012;2023-07-16T10:22:33;991.295;;;23.29;54.4
13058;BME280;6595;49.578;11.012;2023-07-16T10:24:27;991.353;;;23.23;54.7
13058;BME280;6595;49.578;11.012;2023-07-16T10:26:27;991.369;;;22.98;55.3
13058;BME280;6595;49.578;11.012;2023-07-16T10:28:24;991.235;;;22.76;56.2
13058;BME280;6595;49.578;11.012;2023-07-16T10:30:23;991.143;;;22.75;56.6
13058;BME280;6595;49.578;11.012;2023-07-16T10:32:26;991.132;;;22.78;56.1
13058;BME280;6595;49.578;11.012;2023-07-16T10:34:23;991.263;;;22.84;56.1
13058;BME280;6595;49.578;11.012;2023-07-16T10:36:24;991.205;;;22.74;54.4
13058;BME280;6595;49.578;11.012;2023-07-16T10:38:23;991.218;;;22.76;54.6
13058;BME280;6595;49.578;11.012;2023-07-16T10:40:24;991.167;;;22.86;54.9
13058;BME280;6595;49.578;11.012;2023-07-16T10:42:24;991.237;;;22.99;54.2
13058;BME280;6595;49.578;11.012;2023-07-16T10:44:23;991.126;;;22.94;53.1
13058;BME280;6595;49.578;11.012;2023-07-16T10:46:24;991.116;;;22.82;53.0
13058;BME280;6595;49.578;11.012;2023-07-16T10:48:24;991.249;;;22.58;53.3
13058;BME280;6595;49.578;11.012;2023-07-16T10:50:24;991.116;;;22.72;54.1
13058;BME280;6595;49.578;11.012;2023-07-16T10:52:24;991.074;;;22.94;55.0